Oakhill, Alabama
Current Conditions -  °F | °C
As of 8:56 PM on Monday 22 Dec 2014 (Local Time) from KPRN Reporting Station
Haze Haze  
Wind Chill: 14°   Ceiling: 100
Heat Index: 14°   Visibility: 2mi
Dew Point: 13°   Wind: 5mph
Humidity: 96%   Direction: 130°SE
Pressure: 29.82"   Gusts: NA
Location:  31.9217°N, 87.0814°W
Report Text: KPRN 230256Z AUTO 13004KT 2SM BR OVC001 14/13 A2982 RMK AO2 SLP095 T01390133 50004
Loading
Personal Weather Stations






























Interactive Weather Map New forecast layout! Learn more

10-Day Weather Forecast

Advertisements
Track Severe Weather on mobile